sensor_id;sensor_type;location;lat;lon;timestamp;pressure;altitude;pressure_sealevel;temperature;humidity
79376;BME280;68846;53.150;18.136;2023-05-15T00:00:18;100783.03;;;15.72;46.58
79376;BME280;68846;53.150;18.136;2023-05-15T00:03:05;100780.58;;;15.69;46.57
79376;BME280;68846;53.150;18.136;2023-05-15T00:05:33;100774.92;;;15.66;46.79
79376;BME280;68846;53.150;18.136;2023-05-15T00:08:00;100771.04;;;15.64;46.67
79376;BME280;68846;53.150;18.136;2023-05-15T00:10:27;100771.73;;;15.62;46.54
79376;BME280;68846;53.150;18.136;2023-05-15T00:12:54;100768.36;;;15.60;46.64
79376;BME280;68846;53.150;18.136;2023-05-15T00:15:20;100764.47;;;15.58;46.83
79376;BME280;68846;53.150;18.136;2023-05-15T00:17:46;100761.46;;;15.57;46.71
79376;BME280;68846;53.150;18.136;2023-05-15T00:20:13;100761.27;;;15.58;46.84
79376;BME280;68846;53.150;18.136;2023-05-15T00:22:39;100761.11;;;15.57;46.82
79376;BME280;68846;53.150;18.136;2023-05-15T00:25:06;100757.95;;;15.53;47.08
79376;BME280;68846;53.150;18.136;2023-05-15T00:27:32;100759.38;;;15.53;46.93
79376;BME280;68846;53.150;18.136;2023-05-15T00:29:58;100754.58;;;15.52;46.90
79376;BME280;68846;53.150;18.136;2023-05-15T00:32:24;100736.88;;;15.48;47.05
79376;BME280;68846;53.150;18.136;2023-05-15T00:34:51;100742.69;;;15.52;46.92
79376;BME280;68846;53.150;18.136;2023-05-15T00:37:17;100740.06;;;15.49;46.97
79376;BME280;68846;53.150;18.136;2023-05-15T00:39:44;100738.84;;;15.48;47.00
79376;BME280;68846;53.150;18.136;2023-05-15T00:42:11;100732.80;;;15.47;47.08
79376;BME280;68846;53.150;18.136;2023-05-15T00:44:39;100726.77;;;15.47;47.04
79376;BME280;68846;53.150;18.136;2023-05-15T00:47:06;100729.42;;;15.48;47.03
79376;BME280;68846;53.150;18.136;2023-05-15T00:49:34;100727.27;;;15.51;47.09
79376;BME280;68846;53.150;18.136;2023-05-15T00:52:02;100725.14;;;15.49;47.11
79376;BME280;68846;53.150;18.136;2023-05-15T00:54:29;100717.54;;;15.46;47.30
79376;BME280;68846;53.150;18.136;2023-05-15T00:56:55;100715.93;;;15.47;47.47
79376;BME280;68846;53.150;18.136;2023-05-15T00:59:25;100718.02;;;15.52;47.49
79376;BME280;68846;53.150;18.136;2023-05-15T01:01:53;100715.36;;;15.51;47.38
79376;BME280;68846;53.150;18.136;2023-05-15T01:04:44;100715.05;;;15.49;47.33
79376;BME280;68846;53.150;18.136;2023-05-15T01:07:12;100703.56;;;15.42;47.32
79376;BME280;68846;53.150;18.136;2023-05-15T01:09:41;100712.20;;;15.47;47.33
79376;BME280;68846;53.150;18.136;2023-05-15T01:12:09;100712.56;;;15.46;47.32
79376;BME280;68846;53.150;18.136;2023-05-15T01:14:36;100703.92;;;15.42;47.53
79376;BME280;68846;53.150;18.136;2023-05-15T01:17:02;100714.85;;;15.50;47.45
79376;BME280;68846;53.150;18.136;2023-05-15T01:19:28;100728.86;;;15.51;47.50
79376;BME280;68846;53.150;18.136;2023-05-15T01:30:20;100715.41;;;15.47;47.77
79376;BME280;68846;53.150;18.136;2023-05-15T01:33:05;100700.77;;;15.38;47.87
79376;BME280;68846;53.150;18.136;2023-05-15T01:35:58;100713.98;;;15.46;48.01
79376;BME280;68846;53.150;18.136;2023-05-15T01:38:43;100709.88;;;15.50;48.15
79376;BME280;68846;53.150;18.136;2023-05-15T01:41:22;100700.09;;;15.52;48.01
79376;BME280;68846;53.150;18.136;2023-05-15T01:44:01;100703.83;;;15.51;48.25
79376;BME280;68846;53.150;18.136;2023-05-15T01:46:30;100704.00;;;15.52;48.26
79376;BME280;68846;53.150;18.136;2023-05-15T01:48:57;100707.72;;;15.55;48.24
79376;BME280;68846;53.150;18.136;2023-05-15T01:51:26;100699.86;;;15.58;48.18
79376;BME280;68846;53.150;18.136;2023-05-15T01:53:53;100697.20;;;15.60;48.37
79376;BME280;68846;53.150;18.136;2023-05-15T01:56:22;100685.16;;;15.56;48.32
79376;BME280;68846;53.150;18.136;2023-05-15T01:58:50;100679.79;;;15.64;48.30
79376;BME280;68846;53.150;18.136;2023-05-15T02:01:17;100674.15;;;15.60;48.45
79376;BME280;68846;53.150;18.136;2023-05-15T02:03:44;100676.39;;;15.67;48.60
79376;BME280;68846;53.150;18.136;2023-05-15T02:06:12;100668.92;;;15.68;48.44
79376;BME280;68846;53.150;18.136;2023-05-15T02:08:40;100667.67;;;15.68;48.29
79376;BME280;68846;53.150;18.136;2023-05-15T02:11:08;100654.33;;;15.70;48.20
79376;BME280;68846;53.150;18.136;2023-05-15T02:13:35;100649.71;;;15.71;48.03
79376;BME280;68846;53.150;18.136;2023-05-15T02:16:02;100649.89;;;15.72;47.88
79376;BME280;68846;53.150;18.136;2023-05-15T02:18:28;100637.85;;;15.67;47.85
79376;BME280;68846;53.150;18.136;2023-05-15T02:20:56;100649.52;;;15.73;47.82
79376;BME280;68846;53.150;18.136;2023-05-15T02:23:23;100639.10;;;15.67;47.82
79376;BME280;68846;53.150;18.136;2023-05-15T02:31:46;100633.54;;;15.73;47.63
79376;BME280;68846;53.150;18.136;2023-05-15T02:34:25;100634.80;;;15.72;47.46
79376;BME280;68846;53.150;18.136;2023-05-15T02:36:53;100619.77;;;15.65;47.57
79376;BME280;68846;53.150;18.136;2023-05-15T02:39:23;100629.33;;;15.68;47.62
79376;BME280;68846;53.150;18.136;2023-05-15T02:41:51;100637.51;;;15.67;47.67
79376;BME280;68846;53.150;18.136;2023-05-15T02:44:19;100616.63;;;15.61;47.85
79376;BME280;68846;53.150;18.136;2023-05-15T02:46:47;100623.16;;;15.63;47.68
79376;BME280;68846;53.150;18.136;2023-05-15T02:49:13;100619.44;;;15.60;47.71
79376;BME280;68846;53.150;18.136;2023-05-15T02:51:40;100613.77;;;15.60;47.83
79376;BME280;68846;53.150;18.136;2023-05-15T02:54:07;100608.97;;;15.60;47.88
79376;BME280;68846;53.150;18.136;2023-05-15T02:56:34;100600.45;;;15.60;47.81
79376;BME280;68846;53.150;18.136;2023-05-15T02:59:00;100596.02;;;15.60;47.68
79376;BME280;68846;53.150;18.136;2023-05-15T03:01:26;100597.98;;;15.58;47.76
79376;BME280;68846;53.150;18.136;2023-05-15T03:03:53;100589.49;;;15.56;47.67
79376;BME280;68846;53.150;18.136;2023-05-15T03:06:19;100571.31;;;15.46;47.43
79376;BME280;68846;53.150;18.136;2023-05-15T03:08:45;100583.38;;;15.47;47.53
79376;BME280;68846;53.150;18.136;2023-05-15T03:11:12;100592.25;;;15.47;47.57
79376;BME280;68846;53.150;18.136;2023-05-15T03:13:38;100585.33;;;15.47;47.56
79376;BME280;68846;53.150;18.136;2023-05-15T03:16:04;100570.77;;;15.47;47.52
79376;BME280;68846;53.150;18.136;2023-05-15T03:18:31;100577.70;;;15.48;47.52
79376;BME280;68846;53.150;18.136;2023-05-15T03:20:57;100569.17;;;15.48;47.27
79376;BME280;68846;53.150;18.136;2023-05-15T03:23:23;100560.29;;;15.48;47.34
79376;BME280;68846;53.150;18.136;2023-05-15T03:25:50;100557.59;;;15.51;47.45
79376;BME280;68846;53.150;18.136;2023-05-15T03:28:16;100563.64;;;15.50;47.44
79376;BME280;68846;53.150;18.136;2023-05-15T03:30:43;100566.30;;;15.50;47.49
79376;BME280;68846;53.150;18.136;2023-05-15T03:33:09;100548.58;;;15.47;47.45
79376;BME280;68846;53.150;18.136;2023-05-15T03:35:35;100544.98;;;15.52;47.43
79376;BME280;68846;53.150;18.136;2023-05-15T03:38:01;100554.55;;;15.52;47.62
79376;BME280;68846;53.150;18.136;2023-05-15T03:40:27;100550.30;;;15.51;47.61
79376;BME280;68846;53.150;18.136;2023-05-15T03:42:54;100540.21;;;15.50;47.57
79376;BME280;68846;53.150;18.136;2023-05-15T03:45:20;100536.81;;;15.52;47.56
79376;BME280;68846;53.150;18.136;2023-05-15T03:47:47;100521.75;;;15.50;47.59
79376;BME280;68846;53.150;18.136;2023-05-15T03:50:14;100531.73;;;15.47;47.51
79376;BME280;68846;53.150;18.136;2023-05-15T03:52:41;100546.29;;;15.47;47.75
79376;BME280;68846;53.150;18.136;2023-05-15T03:55:07;100548.40;;;15.48;47.96
79376;BME280;68846;53.150;18.136;2023-05-15T03:57:33;100549.09;;;15.49;48.09
79376;BME280;68846;53.150;18.136;2023-05-15T04:00:00;100533.86;;;15.46;48.02
79376;BME280;68846;53.150;18.136;2023-05-15T04:02:38;100524.66;;;15.45;48.03
79376;BME280;68846;53.150;18.136;2023-05-15T04:05:06;100533.39;;;15.43;48.26
79376;BME280;68846;53.150;18.136;2023-05-15T04:07:36;100525.40;;;15.43;48.32
79376;BME280;68846;53.150;18.136;2023-05-15T04:10:03;100521.51;;;15.42;48.44
79376;BME280;68846;53.150;18.136;2023-05-15T04:12:32;100521.16;;;15.40;48.48
79376;BME280;68846;53.150;18.136;2023-05-15T04:15:23;100520.33;;;15.36;48.68
79376;BME280;68846;53.150;18.136;2023-05-15T04:17:51;100526.73;;;15.33;48.89
79376;BME280;68846;53.150;18.136;2023-05-15T04:20:20;100522.50;;;15.32;48.89
79376;BME280;68846;53.150;18.136;2023-05-15T04:22:46;100509.58;;;15.29;49.10
79376;BME280;68846;53.150;18.136;2023-05-15T04:25:13;100506.61;;;15.25;49.07
79376;BME280;68846;53.150;18.136;2023-05-15T04:27:41;100506.78;;;15.25;49.19
79376;BME280;68846;53.150;18.136;2023-05-15T04:30:08;100520.29;;;15.23;49.01
79376;BME280;68846;53.150;18.136;2023-05-15T04:32:35;100510.36;;;15.24;49.10
79376;BME280;68846;53.150;18.136;2023-05-15T04:35:01;100516.21;;;15.22;49.44
79376;BME280;68846;53.150;18.136;2023-05-15T04:37:28;100512.91;;;15.17;49.32
79376;BME280;68846;53.150;18.136;2023-05-15T04:39:54;100525.32;;;15.17;49.51
79376;BME280;68846;53.150;18.136;2023-05-15T04:42:20;100516.11;;;15.18;49.41
79376;BME280;68846;53.150;18.136;2023-05-15T04:44:46;100528.15;;;15.18;49.56
79376;BME280;68846;53.150;18.136;2023-05-15T04:47:13;100524.25;;;15.18;49.66
79376;BME280;68846;53.150;18.136;2023-05-15T04:49:40;100517.70;;;15.17;49.85
79376;BME280;68846;53.150;18.136;2023-05-15T04:52:07;100498.91;;;15.15;49.65
79376;BME280;68846;53.150;18.136;2023-05-15T04:54:34;100513.49;;;15.13;49.89
79376;BME280;68846;53.150;18.136;2023-05-15T04:57:01;100510.12;;;15.13;50.05
79376;BME280;68846;53.150;18.136;2023-05-15T04:59:27;100507.44;;;15.14;50.29
79376;BME280;68846;53.150;18.136;2023-05-15T05:01:53;100526.06;;;15.15;50.28
79376;BME280;68846;53.150;18.136;2023-05-15T05:04:20;100503.40;;;15.10;50.27
79376;BME280;68846;53.150;18.136;2023-05-15T05:06:46;100516.66;;;15.14;50.26
79376;BME280;68846;53.150;18.136;2023-05-15T05:09:12;100508.69;;;15.14;50.16
79376;BME280;68846;53.150;18.136;2023-05-15T05:11:39;100502.11;;;15.14;50.30
79376;BME280;68846;53.150;18.136;2023-05-15T05:14:18;100497.70;;;15.13;50.52
79376;BME280;68846;53.150;18.136;2023-05-15T05:16:44;100504.09;;;15.12;50.68
79376;BME280;68846;53.150;18.136;2023-05-15T05:19:10;100504.23;;;15.14;51.34
79376;BME280;68846;53.150;18.136;2023-05-15T05:21:36;100494.47;;;15.15;52.17
79376;BME280;68846;53.150;18.136;2023-05-15T05:24:02;100491.81;;;15.15;51.76
79376;BME280;68846;53.150;18.136;2023-05-15T05:26:29;100479.75;;;15.15;52.02
79376;BME280;68846;53.150;18.136;2023-05-15T05:28:56;100463.64;;;15.14;51.95
79376;BME280;68846;53.150;18.136;2023-05-15T05:31:22;100490.77;;;15.13;52.16
79376;BME280;68846;53.150;18.136;2023-05-15T05:33:48;100496.64;;;15.13;52.73
79376;BME280;68846;53.150;18.136;2023-05-15T05:36:14;100503.00;;;15.14;52.59
79376;BME280;68846;53.150;18.136;2023-05-15T05:38:40;100514.89;;;15.14;52.46
79376;BME280;68846;53.150;18.136;2023-05-15T05:41:07;100523.75;;;15.14;52.67
79376;BME280;68846;53.150;18.136;2023-05-15T05:43:33;100501.46;;;15.09;52.39
79376;BME280;68846;53.150;18.136;2023-05-15T05:46:00;100518.23;;;15.16;52.32
79376;BME280;68846;53.150;18.136;2023-05-15T05:48:27;100514.49;;;15.19;52.71
79376;BME280;68846;53.150;18.136;2023-05-15T05:50:53;100520.67;;;15.20;52.60
79376;BME280;68846;53.150;18.136;2023-05-15T05:53:19;100523.12;;;15.22;52.88
79376;BME280;68846;53.150;18.136;2023-05-15T05:55:46;100516.73;;;15.24;52.87
79376;BME280;68846;53.150;18.136;2023-05-15T05:58:13;100501.33;;;15.21;52.76
79376;BME280;68846;53.150;18.136;2023-05-15T06:00:40;100508.50;;;15.28;52.78
79376;BME280;68846;53.150;18.136;2023-05-15T06:03:06;100503.20;;;15.30;52.59
79376;BME280;68846;53.150;18.136;2023-05-15T06:05:32;100500.41;;;15.25;52.48
79376;BME280;68846;53.150;18.136;2023-05-15T06:07:59;100510.27;;;15.31;52.63
79376;BME280;68846;53.150;18.136;2023-05-15T06:10:27;100504.40;;;15.32;52.72
79376;BME280;68846;53.150;18.136;2023-05-15T06:12:54;100501.02;;;15.33;52.77
79376;BME280;68846;53.150;18.136;2023-05-15T06:15:21;100496.08;;;15.31;52.99
79376;BME280;68846;53.150;18.136;2023-05-15T06:17:47;100498.20;;;15.32;53.35
79376;BME280;68846;53.150;18.136;2023-05-15T06:20:14;100478.80;;;15.22;53.65
79376;BME280;68846;53.150;18.136;2023-05-15T06:22:40;100502.66;;;15.29;54.58
79376;BME280;68846;53.150;18.136;2023-05-15T06:25:07;100501.98;;;15.26;54.65
79376;BME280;68846;53.150;18.136;2023-05-15T06:27:39;100501.88;;;15.19;54.82
79376;BME280;68846;53.150;18.136;2023-05-15T06:30:07;100505.30;;;15.15;55.88
79376;BME280;68846;53.150;18.136;2023-05-15T06:32:34;100503.57;;;15.11;56.13
79376;BME280;68846;53.150;18.136;2023-05-15T06:35:01;100484.03;;;14.97;56.38
79376;BME280;68846;53.150;18.136;2023-05-15T06:37:27;100501.82;;;15.09;56.64
79376;BME280;68846;53.150;18.136;2023-05-15T06:39:54;100508.39;;;15.07;56.97
79376;BME280;68846;53.150;18.136;2023-05-15T06:42:22;100505.04;;;15.06;57.73
79376;BME280;68846;53.150;18.136;2023-05-15T06:44:48;100502.39;;;15.04;58.16
79376;BME280;68846;53.150;18.136;2023-05-15T06:47:16;100499.76;;;15.03;58.39
79376;BME280;68846;53.150;18.136;2023-05-15T06:49:42;100493.92;;;15.00;58.45
79376;BME280;68846;53.150;18.136;2023-05-15T06:52:09;100489.91;;;14.93;58.54
79376;BME280;68846;53.150;18.136;2023-05-15T06:54:36;100490.45;;;14.95;58.87
79376;BME280;68846;53.150;18.136;2023-05-15T06:57:03;100494.00;;;14.94;58.95
79376;BME280;68846;53.150;18.136;2023-05-15T06:59:30;100487.77;;;14.96;59.04
79376;BME280;68846;53.150;18.136;2023-05-15T07:02:03;100474.84;;;14.93;59.30
79376;BME280;68846;53.150;18.136;2023-05-15T07:04:31;100477.09;;;14.98;59.65
79376;BME280;68846;53.150;18.136;2023-05-15T07:06:58;100478.71;;;14.96;60.08
79376;BME280;68846;53.150;18.136;2023-05-15T07:09:25;100472.86;;;14.96;60.21
79376;BME280;68846;53.150;18.136;2023-05-15T07:11:52;100468.46;;;14.94;60.62
79376;BME280;68846;53.150;18.136;2023-05-15T07:14:18;100461.42;;;14.89;60.92
79376;BME280;68846;53.150;18.136;2023-05-15T07:16:45;100455.25;;;14.86;61.40
79376;BME280;68846;53.150;18.136;2023-05-15T07:19:12;100454.39;;;14.83;61.21
79376;BME280;68846;53.150;18.136;2023-05-15T07:21:39;100446.23;;;14.83;61.64
79376;BME280;68846;53.150;18.136;2023-05-15T07:24:06;100435.79;;;14.82;62.38
79376;BME280;68846;53.150;18.136;2023-05-15T07:26:32;100439.66;;;14.84;62.57
79376;BME280;68846;53.150;18.136;2023-05-15T07:28:58;100434.72;;;14.83;62.68
79376;BME280;68846;53.150;18.136;2023-05-15T07:31:25;100417.94;;;14.76;63.32
79376;BME280;68846;53.150;18.136;2023-05-15T07:34:16;100422.15;;;14.80;63.36
79376;BME280;68846;53.150;18.136;2023-05-15T07:36:43;100417.88;;;14.81;63.65
79376;BME280;68846;53.150;18.136;2023-05-15T07:39:09;100414.34;;;14.80;63.83
79376;BME280;68846;53.150;18.136;2023-05-15T07:41:35;100414.16;;;14.82;64.19
79376;BME280;68846;53.150;18.136;2023-05-15T07:44:02;100407.38;;;14.86;64.52
79376;BME280;68846;53.150;18.136;2023-05-15T07:46:28;100399.27;;;14.84;64.28
79376;BME280;68846;53.150;18.136;2023-05-15T07:48:54;100401.62;;;14.92;64.84
79376;BME280;68846;53.150;18.136;2023-05-15T07:51:20;100398.25;;;14.94;64.97
79376;BME280;68846;53.150;18.136;2023-05-15T07:53:46;100395.60;;;14.92;65.08
79376;BME280;68846;53.150;18.136;2023-05-15T07:56:13;100396.52;;;14.90;65.30
79376;BME280;68846;53.150;18.136;2023-05-15T07:58:39;100388.68;;;14.92;65.99
79376;BME280;68846;53.150;18.136;2023-05-15T08:01:05;100382.71;;;14.88;65.73
79376;BME280;68846;53.150;18.136;2023-05-15T08:03:32;100376.17;;;14.85;65.93
79376;BME280;68846;53.150;18.136;2023-05-15T08:05:59;100370.88;;;14.84;65.98
79376;BME280;68846;53.150;18.136;2023-05-15T08:08:26;100363.03;;;14.88;65.79
79376;BME280;68846;53.150;18.136;2023-05-15T08:10:52;100356.23;;;14.93;65.77
79376;BME280;68846;53.150;18.136;2023-05-15T08:13:18;100348.02;;;14.99;65.96
79376;BME280;68846;53.150;18.136;2023-05-15T08:15:44;100348.29;;;15.04;65.92
79376;BME280;68846;53.150;18.136;2023-05-15T08:18:10;100328.78;;;14.91;65.43
79376;BME280;68846;53.150;18.136;2023-05-15T08:20:37;100333.40;;;14.90;65.55
79376;BME280;68846;53.150;18.136;2023-05-15T08:23:03;100342.95;;;14.91;65.83
79376;BME280;68846;53.150;18.136;2023-05-15T08:25:29;100337.13;;;14.90;65.89
79376;BME280;68846;53.150;18.136;2023-05-15T08:27:55;100330.98;;;14.86;65.77
79376;BME280;68846;53.150;18.136;2023-05-15T08:30:22;100323.37;;;14.84;65.84
79376;BME280;68846;53.150;18.136;2023-05-15T08:32:48;100317.12;;;14.88;65.61
79376;BME280;68846;53.150;18.136;2023-05-15T08:35:14;100317.29;;;14.89;65.74
79376;BME280;68846;53.150;18.136;2023-05-15T08:37:41;100311.64;;;14.87;65.78
79376;BME280;68846;53.150;18.136;2023-05-15T08:40:07;100308.84;;;14.84;66.22
79376;BME280;68846;53.150;18.136;2023-05-15T08:42:42;100306.20;;;14.81;66.04
79376;BME280;68846;53.150;18.136;2023-05-15T08:45:11;100304.22;;;14.85;66.25
79376;BME280;68846;53.150;18.136;2023-05-15T08:47:39;100305.04;;;14.90;66.09
79376;BME280;68846;53.150;18.136;2023-05-15T08:50:08;100300.73;;;14.92;65.94
79376;BME280;68846;53.150;18.136;2023-05-15T08:52:37;100284.97;;;14.92;66.21
79376;BME280;68846;53.150;18.136;2023-05-15T08:55:06;100288.96;;;14.99;65.87
79376;BME280;68846;53.150;18.136;2023-05-15T08:57:33;100282.80;;;14.96;65.84
79376;BME280;68846;53.150;18.136;2023-05-15T08:59:59;100292.20;;;15.08;66.06
79376;BME280;68846;53.150;18.136;2023-05-15T09:02:26;100289.69;;;15.10;66.41
79376;BME280;68846;53.150;18.136;2023-05-15T09:04:52;100284.51;;;15.13;66.19
79376;BME280;68846;53.150;18.136;2023-05-15T09:07:19;100277.78;;;15.12;66.43
79376;BME280;68846;53.150;18.136;2023-05-15T09:09:46;100292.69;;;15.11;66.73
79376;BME280;68846;53.150;18.136;2023-05-15T09:12:14;100293.75;;;15.12;66.73
79376;BME280;68846;53.150;18.136;2023-05-15T09:14:43;100298.48;;;15.15;67.42
79376;BME280;68846;53.150;18.136;2023-05-15T09:17:10;100294.02;;;15.18;67.52
79376;BME280;68846;53.150;18.136;2023-05-15T09:19:40;100292.52;;;15.23;67.70
79376;BME280;68846;53.150;18.136;2023-05-15T09:22:18;100285.59;;;15.24;67.47
79376;BME280;68846;53.150;18.136;2023-05-15T09:24:49;100283.06;;;15.27;67.57
79376;BME280;68846;53.150;18.136;2023-05-15T09:27:18;100281.08;;;15.30;67.87
79376;BME280;68846;53.150;18.136;2023-05-15T09:29:45;100280.33;;;15.32;67.91
79376;BME280;68846;53.150;18.136;2023-05-15T09:32:13;100277.13;;;15.33;67.68
79376;BME280;68846;53.150;18.136;2023-05-15T09:34:41;100277.48;;;15.32;67.38
79376;BME280;68846;53.150;18.136;2023-05-15T09:37:09;100268.39;;;15.23;66.77
79376;BME280;68846;53.150;18.136;2023-05-15T09:39:40;100279.66;;;15.28;66.69
79376;BME280;68846;53.150;18.136;2023-05-15T09:42:12;100277.41;;;15.25;66.73
79376;BME280;68846;53.150;18.136;2023-05-15T09:44:41;100263.73;;;15.14;66.77
79376;BME280;68846;53.150;18.136;2023-05-15T09:47:09;100271.55;;;15.14;67.36
79376;BME280;68846;53.150;18.136;2023-05-15T09:49:36;100271.12;;;15.07;67.30
79376;BME280;68846;53.150;18.136;2023-05-15T09:52:05;100269.66;;;14.97;68.16
79376;BME280;68846;53.150;18.136;2023-05-15T09:54:32;100268.25;;;14.83;67.86
79376;BME280;68846;53.150;18.136;2023-05-15T09:57:08;100267.66;;;14.73;68.81
79376;BME280;68846;53.150;18.136;2023-05-15T09:59:37;100265.06;;;14.68;68.15
79376;BME280;68846;53.150;18.136;2023-05-15T10:02:07;100262.23;;;14.68;68.40
79376;BME280;68846;53.150;18.136;2023-05-15T10:04:34;100260.19;;;14.62;68.96
79376;BME280;68846;53.150;18.136;2023-05-15T10:07:06;100257.48;;;14.50;68.96
79376;BME280;68846;53.150;18.136;2023-05-15T10:09:32;100254.03;;;14.40;68.91
79376;BME280;68846;53.150;18.136;2023-05-15T10:11:59;100248.08;;;14.35;68.96
79376;BME280;68846;53.150;18.136;2023-05-15T10:14:26;100248.45;;;14.34;69.11
79376;BME280;68846;53.150;18.136;2023-05-15T10:16:54;100249.12;;;14.36;69.03
79376;BME280;68846;53.150;18.136;2023-05-15T10:19:21;100249.45;;;14.39;69.17
79376;BME280;68846;53.150;18.136;2023-05-15T10:21:52;100247.11;;;14.42;69.28
79376;BME280;68846;53.150;18.136;2023-05-15T10:24:22;100240.86;;;14.45;69.77
79376;BME280;68846;53.150;18.136;2023-05-15T10:26:49;100240.34;;;14.44;69.74
79376;BME280;68846;53.150;18.136;2023-05-15T10:29:18;100238.58;;;14.47;70.08
79376;BME280;68846;53.150;18.136;2023-05-15T10:31:47;100242.30;;;14.47;70.74
79376;BME280;68846;53.150;18.136;2023-05-15T10:34:14;100242.11;;;14.44;70.32
79376;BME280;68846;53.150;18.136;2023-05-15T10:36:40;100240.88;;;14.47;70.39
79376;BME280;68846;53.150;18.136;2023-05-15T10:39:07;100237.48;;;14.49;70.60
79376;BME280;68846;53.150;18.136;2023-05-15T10:41:36;100233.93;;;14.51;70.64
79376;BME280;68846;53.150;18.136;2023-05-15T10:44:04;100233.38;;;14.53;70.70
79376;BME280;68846;53.150;18.136;2023-05-15T10:46:33;100230.35;;;14.53;70.91
79376;BME280;68846;53.150;18.136;2023-05-15T10:49:00;100227.90;;;14.51;71.06
79376;BME280;68846;53.150;18.136;2023-05-15T10:51:28;100228.98;;;14.49;71.28
79376;BME280;68846;53.150;18.136;2023-05-15T10:53:55;100227.42;;;14.47;71.19
79376;BME280;68846;53.150;18.136;2023-05-15T10:56:28;100231.13;;;14.45;71.79
79376;BME280;68846;53.150;18.136;2023-05-15T10:58:55;100217.27;;;14.33;71.24
79376;BME280;68846;53.150;18.136;2023-05-15T11:01:33;100224.16;;;14.35;71.33
79376;BME280;68846;53.150;18.136;2023-05-15T11:04:17;100223.30;;;14.32;71.34
79376;BME280;68846;53.150;18.136;2023-05-15T11:06:48;100226.14;;;14.31;71.41
79376;BME280;68846;53.150;18.136;2023-05-15T11:14:18;100214.34;;;14.27;72.01
79376;BME280;68846;53.150;18.136;2023-05-15T11:25:10;100204.39;;;14.30;72.03
79376;BME280;68846;53.150;18.136;2023-05-15T11:27:43;100205.10;;;14.29;72.02
79376;BME280;68846;53.150;18.136;2023-05-15T11:30:13;100200.69;;;14.27;72.52
79376;BME280;68846;53.150;18.136;2023-05-15T11:35:21;100188.11;;;14.27;72.62
79376;BME280;68846;53.150;18.136;2023-05-15T11:37:48;100187.40;;;14.27;72.61
79376;BME280;68846;53.150;18.136;2023-05-15T11:43:22;100177.92;;;14.34;72.82
79376;BME280;68846;53.150;18.136;2023-05-15T11:45:57;100178.23;;;14.38;72.92
79376;BME280;68846;53.150;18.136;2023-05-15T11:48:29;100175.89;;;14.42;72.49
79376;BME280;68846;53.150;18.136;2023-05-15T11:50:56;100165.45;;;14.40;72.21
79376;BME280;68846;53.150;18.136;2023-05-15T11:53:23;100164.52;;;14.46;72.23
79376;BME280;68846;53.150;18.136;2023-05-15T11:55:51;100168.77;;;14.47;72.63
79376;BME280;68846;53.150;18.136;2023-05-15T11:58:23;100159.73;;;14.46;72.63
79376;BME280;68846;53.150;18.136;2023-05-15T12:00:50;100160.45;;;14.45;72.97
79376;BME280;68846;53.150;18.136;2023-05-15T12:03:32;100158.88;;;14.43;72.97
79376;BME280;68846;53.150;18.136;2023-05-15T12:06:03;100159.05;;;14.42;73.13
79376;BME280;68846;53.150;18.136;2023-05-15T12:08:33;100151.98;;;14.42;73.05
79376;BME280;68846;53.150;18.136;2023-05-15T12:11:01;100150.55;;;14.42;73.37
79376;BME280;68846;53.150;18.136;2023-05-15T12:13:28;100148.23;;;14.42;73.35
79376;BME280;68846;53.150;18.136;2023-05-15T12:15:57;100142.38;;;14.45;73.42
79376;BME280;68846;53.150;18.136;2023-05-15T12:18:26;100142.71;;;14.45;73.18
79376;BME280;68846;53.150;18.136;2023-05-15T12:20:53;100141.83;;;14.44;73.25
79376;BME280;68846;53.150;18.136;2023-05-15T12:23:24;100138.88;;;14.41;73.64
79376;BME280;68846;53.150;18.136;2023-05-15T12:25:52;100133.83;;;14.35;73.61
79376;BME280;68846;53.150;18.136;2023-05-15T12:28:22;100126.79;;;14.32;73.97
79376;BME280;68846;53.150;18.136;2023-05-15T12:30:49;100124.36;;;14.27;74.12
79376;BME280;68846;53.150;18.136;2023-05-15T12:33:16;100126.89;;;14.23;74.17
79376;BME280;68846;53.150;18.136;2023-05-15T12:35:43;100126.42;;;14.17;74.24
79376;BME280;68846;53.150;18.136;2023-05-15T12:38:14;100117.98;;;14.13;74.42
79376;BME280;68846;53.150;18.136;2023-05-15T12:40:51;100114.77;;;14.14;74.94
79376;BME280;68846;53.150;18.136;2023-05-15T12:43:18;100113.28;;;14.20;75.01
79376;BME280;68846;53.150;18.136;2023-05-15T12:45:45;100111.16;;;14.22;74.85
79376;BME280;68846;53.150;18.136;2023-05-15T12:48:14;100104.80;;;14.20;75.04
79376;BME280;68846;53.150;18.136;2023-05-15T12:50:43;100101.83;;;14.17;74.74
79376;BME280;68846;53.150;18.136;2023-05-15T12:53:12;100096.89;;;14.15;74.91
79376;BME280;68846;53.150;18.136;2023-05-15T12:55:41;100100.25;;;14.15;74.76
79376;BME280;68846;53.150;18.136;2023-05-15T12:58:10;100091.56;;;14.17;75.34
79376;BME280;68846;53.150;18.136;2023-05-15T13:00:40;100085.59;;;14.13;75.32
79376;BME280;68846;53.150;18.136;2023-05-15T13:03:10;100088.43;;;14.12;75.49
79376;BME280;68846;53.150;18.136;2023-05-15T13:05:38;100085.26;;;14.11;75.24
79376;BME280;68846;53.150;18.136;2023-05-15T13:08:05;100079.92;;;14.12;75.47
79376;BME280;68846;53.150;18.136;2023-05-15T13:10:35;100055.06;;;14.05;75.41
79376;BME280;68846;53.150;18.136;2023-05-15T13:13:02;100065.55;;;14.14;75.27
79376;BME280;68846;53.150;18.136;2023-05-15T13:15:34;100062.15;;;14.18;75.62
79376;BME280;68846;53.150;18.136;2023-05-15T13:18:05;100058.80;;;14.16;75.44